createdAt,value
2022-08-04T00:00:06.657Z,100440.91
2022-08-04T00:02:48.284Z,100440.09
2022-08-04T00:05:28.206Z,100440.69
2022-08-04T00:08:05.496Z,100440.09
2022-08-04T00:10:35.915Z,100441.38
2022-08-04T00:13:05.449Z,100433.50
2022-08-04T00:15:34.724Z,100434.78
2022-08-04T00:18:05.720Z,100435.63
2022-08-04T00:20:35.496Z,100429.00
2022-08-04T00:23:03.891Z,100393.09
2022-08-04T00:25:31.800Z,100434.03
2022-08-04T00:28:01.897Z,100436.13
2022-08-04T00:30:29.751Z,100437.78
2022-08-04T00:32:58.948Z,100436.56
2022-08-04T00:35:29.373Z,100441.06
2022-08-04T00:37:58.150Z,100436.50
2022-08-04T00:40:33.895Z,100436.28
2022-08-04T00:43:14.130Z,100428.41
2022-08-04T00:46:29.699Z,100431.16
2022-08-04T00:49:21.281Z,100426.59
2022-08-04T00:52:32.599Z,100432.06
2022-08-04T00:54:57.091Z,100429.22
2022-08-04T00:57:34.071Z,100434.00
2022-08-04T01:00:10.592Z,100425.50
2022-08-04T01:02:49.529Z,100424.31
2022-08-04T01:05:29.516Z,100418.09
2022-08-04T01:08:27.334Z,100416.00
2022-08-04T01:11:05.320Z,100410.59
2022-08-04T01:14:09.642Z,100410.59
2022-08-04T01:16:47.842Z,100407.97
2022-08-04T01:19:37.551Z,100395.44
2022-08-04T01:22:19.658Z,100411.91
2022-08-04T01:25:08.172Z,100407.78
2022-08-04T01:28:01.672Z,100406.53
2022-08-04T01:30:33.650Z,100415.22
2022-08-04T01:33:04.403Z,100405.47
2022-08-04T01:35:47.725Z,100405.34
2022-08-04T01:38:21.572Z,100410.78
2022-08-04T01:40:53.363Z,100404.19
2022-08-04T01:43:21.828Z,100398.41
2022-08-04T01:45:58.450Z,100402.00
2022-08-04T01:48:27.606Z,100408.44
2022-08-04T01:50:59.811Z,100405.13
2022-08-04T01:53:32.603Z,100404.97
2022-08-04T01:56:02.341Z,100401.06
2022-08-04T01:58:31.232Z,100399.25
2022-08-04T02:01:08.204Z,100405.25
2022-08-04T02:04:20.078Z,100409.00
2022-08-04T02:06:33.495Z,100404.03
2022-08-04T02:09:12.769Z,100402.16
2022-08-04T02:11:42.649Z,100403.66
2022-08-04T02:14:40.544Z,100400.13
2022-08-04T02:17:13.466Z,100400.28
2022-08-04T02:20:05.012Z,100395.72
2022-08-04T02:22:35.398Z,100391.59
2022-08-04T02:25:08.042Z,100385.59
2022-08-04T02:27:59.276Z,100390.38
2022-08-04T02:30:34.779Z,100390.41
2022-08-04T02:33:08.596Z,100394.97
2022-08-04T02:35:39.650Z,100389.59
2022-08-04T02:38:17.770Z,100385.03
2022-08-04T02:41:00.330Z,100384.19
2022-08-04T02:43:51.229Z,100380.91
2022-08-04T02:46:20.204Z,100380.50
2022-08-04T02:48:51.428Z,100380.72
2022-08-04T02:51:24.955Z,100378.50
2022-08-04T02:53:57.323Z,100385.13
2022-08-04T02:56:26.479Z,100377.28
2022-08-04T02:58:57.507Z,100379.34
2022-08-04T03:01:25.767Z,100374.56
2022-08-04T03:04:24.376Z,100375.19
2022-08-04T03:07:41.504Z,100378.91
2022-08-04T03:10:25.178Z,100368.13
2022-08-04T03:13:11.831Z,100371.06
2022-08-04T03:16:01.032Z,100371.06
2022-08-04T03:19:08.049Z,100366.31
2022-08-04T03:22:12.255Z,100370.66
2022-08-04T03:25:08.331Z,100361.53
2022-08-04T03:28:13.686Z,100363.22
2022-08-04T03:30:59.536Z,100359.94
2022-08-04T03:33:50.916Z,100368.03
2022-08-04T03:37:01.457Z,100365.38
2022-08-04T03:39:53.639Z,100369.09
2022-08-04T03:43:06.491Z,100367.44
2022-08-04T03:46:15.875Z,100361.66
2022-08-04T03:49:31.095Z,100356.13
2022-08-04T03:52:25.217Z,100352.19
2022-08-04T03:55:23.675Z,100363.16
2022-08-04T03:58:30.633Z,100359.03
2022-08-04T04:01:13.472Z,100356.75
2022-08-04T04:04:16.515Z,100362.34
2022-08-04T04:07:04.644Z,100333.84
2022-08-04T04:10:12.225Z,100352.22
2022-08-04T04:13:04.274Z,100368.34
2022-08-04T04:16:00.937Z,100366.28
2022-08-04T04:18:48.397Z,100361.94
2022-08-04T04:21:30.372Z,100362.16
2022-08-04T04:24:12.639Z,100360.50
2022-08-04T04:26:54.536Z,100359.88
2022-08-04T04:29:39.476Z,100365.91
2022-08-04T04:32:22.199Z,100362.59
2022-08-04T04:35:03.980Z,100368.81
2022-08-04T04:37:47.652Z,100364.84
2022-08-04T04:40:26.758Z,100374.19
2022-08-04T04:43:17.224Z,100371.09
2022-08-04T04:45:56.072Z,100372.97
2022-08-04T04:48:34.897Z,100377.94
2022-08-04T04:51:11.460Z,100366.72
2022-08-04T04:53:52.147Z,100351.03
2022-08-04T04:56:36.067Z,100376.44
2022-08-04T04:59:07.548Z,100366.31
2022-08-04T05:02:19.556Z,100368.59
2022-08-04T05:05:17.523Z,100369.63
2022-08-04T05:08:42.727Z,100369.00
2022-08-04T05:11:34.407Z,100378.13
2022-08-04T05:14:38.146Z,100356.84
2022-08-04T05:17:02.705Z,100375.63
2022-08-04T05:19:41.015Z,100376.66
2022-08-04T05:22:14.799Z,100383.91
2022-08-04T05:24:47.748Z,100387.78
2022-08-04T05:27:21.607Z,100384.44
2022-08-04T05:29:54.157Z,100374.56
2022-08-04T05:32:32.699Z,100376.16
2022-08-04T05:35:06.908Z,100380.50
2022-08-04T05:37:38.107Z,100389.13
2022-08-04T05:40:08.536Z,100381.88
2022-08-04T05:42:39.651Z,100391.59
2022-08-04T05:45:14.927Z,100383.91
2022-08-04T05:47:44.112Z,100386.41
2022-08-04T05:50:14.474Z,100384.31
2022-08-04T05:52:44.056Z,100379.31
2022-08-04T05:55:13.643Z,100383.41
2022-08-04T05:58:03.237Z,100386.28
2022-08-04T06:00:40.686Z,100383.38
2022-08-04T06:03:11.640Z,100385.88
2022-08-04T06:05:43.906Z,100385.44
2022-08-04T06:08:13.687Z,100379.59
2022-08-04T06:10:47.180Z,100387.41
2022-08-04T06:13:47.678Z,100383.69
2022-08-04T06:16:17.988Z,100385.94
2022-08-04T06:20:03.366Z,100380.56
2022-08-04T06:21:56.578Z,100385.25
2022-08-04T06:24:30.663Z,100379.44
2022-08-04T06:27:00.721Z,100381.47
2022-08-04T06:29:34.619Z,100377.72
2022-08-04T06:32:27.708Z,100389.03
2022-08-04T06:35:02.624Z,100375.16
2022-08-04T06:37:42.086Z,100387.78
2022-08-04T06:40:31.597Z,100391.06
2022-08-04T06:43:02.286Z,100390.84
2022-08-04T06:45:31.204Z,100390.31
2022-08-04T06:48:01.217Z,100395.06
2022-08-04T06:51:26.317Z,100389.63
2022-08-04T06:53:18.679Z,100391.44
2022-08-04T06:55:51.325Z,100387.22
2022-08-04T06:58:21.638Z,100399.69
2022-08-04T07:00:49.835Z,100393.84
2022-08-04T07:03:19.814Z,100392.09
2022-08-04T07:05:48.385Z,100395.78
2022-08-04T07:08:18.176Z,100392.84
2022-08-04T07:10:46.643Z,100395.34
2022-08-04T07:13:14.730Z,100391.09
2022-08-04T07:15:44.952Z,100389.00
2022-08-04T07:18:15.084Z,100396.66
2022-08-04T07:20:43.904Z,100392.00
2022-08-04T07:23:13.766Z,100388.84
2022-08-04T07:26:00.127Z,100396.72
2022-08-04T07:28:32.252Z,100388.00
2022-08-04T07:31:00.175Z,100395.88
2022-08-04T07:33:29.453Z,100396.72
2022-08-04T07:36:05.854Z,100397.31
2022-08-04T07:38:48.776Z,100392.50
2022-08-04T07:41:38.013Z,100399.94
2022-08-04T07:44:06.950Z,100391.84
2022-08-04T07:46:35.169Z,100360.84
2022-08-04T07:49:03.505Z,100374.28
2022-08-04T07:51:33.047Z,100395.72
2022-08-04T07:54:03.886Z,100391.13
2022-08-04T07:56:33.850Z,100392.78
2022-08-04T07:59:03.358Z,100383.19
2022-08-04T08:01:32.140Z,100389.25
2022-08-04T08:04:01.699Z,100398.09
2022-08-04T08:06:33.213Z,100392.69
2022-08-04T08:09:13.446Z,100395.72
2022-08-04T08:12:36.981Z,100402.78
2022-08-04T08:14:32.274Z,100390.59
2022-08-04T08:17:02.566Z,100392.25
2022-08-04T08:19:31.026Z,100396.94
2022-08-04T08:22:00.766Z,100391.06
2022-08-04T08:24:29.649Z,100400.00
2022-08-04T08:27:00.198Z,100401.56
2022-08-04T08:29:29.893Z,100370.41
2022-08-04T08:32:02.767Z,100386.50
2022-08-04T08:34:34.119Z,100393.94
2022-08-04T08:37:05.973Z,100391.13
2022-08-04T08:39:39.782Z,100396.78
2022-08-04T08:42:43.415Z,100390.56
2022-08-04T08:45:49.912Z,100390.09
2022-08-04T08:48:31.698Z,100390.13
2022-08-04T08:51:22.373Z,100389.91
2022-08-04T08:54:05.651Z,100386.72
2022-08-04T08:56:42.116Z,100384.59
2022-08-04T08:59:28.516Z,100379.53
2022-08-04T09:02:21.059Z,100381.53
2022-08-04T09:05:09.276Z,100382.81
2022-08-04T09:07:54.813Z,100376.94
2022-08-04T09:10:33.073Z,100370.00
2022-08-04T09:13:06.800Z,100375.41
2022-08-04T09:15:38.499Z,100373.63
2022-08-04T09:18:11.840Z,100370.31
2022-08-04T09:20:46.841Z,100367.31
2022-08-04T09:23:24.925Z,100366.78
2022-08-04T09:26:00.417Z,100374.81
2022-08-04T09:28:53.175Z,100377.16
2022-08-04T09:31:25.472Z,100386.03
2022-08-04T09:34:03.708Z,100389.41
2022-08-04T09:36:37.122Z,100386.69
2022-08-04T09:39:11.253Z,100387.53
2022-08-04T09:41:52.565Z,100383.41
2022-08-04T09:44:49.133Z,100389.31
2022-08-04T09:47:23.231Z,100383.81
2022-08-04T09:49:59.033Z,100381.19
2022-08-04T09:52:33.069Z,100387.03
2022-08-04T09:55:10.423Z,100387.88
2022-08-04T09:57:53.208Z,100394.97
2022-08-04T10:00:41.044Z,100391.00
2022-08-04T10:03:16.007Z,100390.94
2022-08-04T10:06:01.035Z,100390.84
2022-08-04T10:08:57.284Z,100399.59
2022-08-04T10:11:55.384Z,100400.16
2022-08-04T10:14:38.638Z,100396.66
2022-08-04T10:17:21.408Z,100388.19
2022-08-04T10:19:58.171Z,100395.63
2022-08-04T10:22:40.647Z,100397.81
2022-08-04T10:26:02.693Z,100398.38
2022-08-04T10:28:18.322Z,100406.09
2022-08-04T10:30:55.752Z,100407.13
2022-08-04T10:33:26.839Z,100406.50
2022-08-04T10:36:02.501Z,100411.41
2022-08-04T10:38:32.416Z,100406.19
2022-08-04T10:41:07.119Z,100414.59
2022-08-04T10:43:45.386Z,100400.94
2022-08-04T10:46:17.752Z,100404.50
2022-08-04T10:48:57.850Z,100416.63
2022-08-04T10:51:57.311Z,100416.97
2022-08-04T10:54:30.385Z,100418.38
2022-08-04T10:57:03.882Z,100424.34
2022-08-04T10:59:40.394Z,100434.22
2022-08-04T11:02:20.543Z,100445.06
2022-08-04T11:04:53.133Z,100432.00
2022-08-04T11:07:23.509Z,100427.13
2022-08-04T11:09:52.818Z,100425.47
2022-08-04T11:12:25.458Z,100428.47
2022-08-04T11:14:59.705Z,100429.75
2022-08-04T11:17:30.389Z,100434.44
2022-08-04T11:20:34.782Z,100446.13
2022-08-04T11:23:07.950Z,100444.47
2022-08-04T11:25:51.417Z,100439.81
2022-08-04T11:28:26.631Z,100437.44
2022-08-04T11:31:00.182Z,100444.59
2022-08-04T11:33:37.125Z,100440.25
2022-08-04T11:36:15.714Z,100433.31
2022-08-04T11:38:52.144Z,100456.50
2022-08-04T11:41:27.649Z,100455.91
2022-08-04T11:44:03.233Z,100456.38
2022-08-04T11:46:40.461Z,100454.75
2022-08-04T11:49:13.144Z,100461.31
2022-08-04T11:51:42.227Z,100460.84
2022-08-04T11:54:13.104Z,100473.44
2022-08-04T11:56:41.036Z,100460.50
2022-08-04T11:59:09.271Z,100468.28
2022-08-04T12:01:51.749Z,100450.13
2022-08-04T12:04:28.978Z,100448.91
2022-08-04T12:07:28.908Z,100435.50
2022-08-04T12:10:04.260Z,100440.31
2022-08-04T12:12:40.305Z,100446.06
2022-08-04T12:15:17.708Z,100443.91
2022-08-04T12:17:53.998Z,100439.59
2022-08-04T12:20:32.044Z,100440.22
2022-08-04T12:23:18.521Z,100442.91
2022-08-04T12:25:56.199Z,100448.81
2022-08-04T12:28:52.586Z,100456.88
2022-08-04T12:31:26.843Z,100459.28
2022-08-04T12:34:05.951Z,100467.72
2022-08-04T12:36:41.323Z,100463.31
2022-08-04T12:39:14.004Z,100458.84
2022-08-04T12:41:48.877Z,100455.56
2022-08-04T12:44:33.312Z,100463.97
2022-08-04T12:47:27.071Z,100462.25
2022-08-04T12:50:01.797Z,100454.66
2022-08-04T12:52:59.051Z,100453.53
2022-08-04T12:55:25.124Z,100458.41
2022-08-04T12:57:56.049Z,100451.22
2022-08-04T13:00:29.754Z,100447.91
2022-08-04T13:03:10.215Z,100455.69
2022-08-04T13:05:41.120Z,100450.72
2022-08-04T13:08:10.028Z,100442.09
2022-08-04T13:10:40.531Z,100440.88
2022-08-04T13:13:16.869Z,100435.38
2022-08-04T13:15:56.487Z,100447.03
2022-08-04T13:18:30.006Z,100434.81
2022-08-04T13:21:20.467Z,100434.97
2022-08-04T13:24:10.858Z,100431.94
2022-08-04T13:26:55.450Z,100434.34
2022-08-04T13:30:00.154Z,100428.06
2022-08-04T13:32:23.149Z,100429.97
2022-08-04T13:34:53.568Z,100437.38
2022-08-04T13:37:26.052Z,100440.44
2022-08-04T13:39:56.705Z,100452.13
2022-08-04T13:42:26.917Z,100446.31
2022-08-04T13:45:02.131Z,100445.19
2022-08-04T13:47:34.012Z,100439.78
2022-08-04T13:50:16.055Z,100444.53
2022-08-04T13:52:44.894Z,100442.00
2022-08-04T13:55:21.733Z,100440.88
2022-08-04T13:57:53.940Z,100437.91
2022-08-04T14:00:29.128Z,100437.88
2022-08-04T14:03:03.340Z,100430.44
2022-08-04T14:05:58.905Z,100441.34
2022-08-04T14:08:25.940Z,100430.44
2022-08-04T14:10:57.889Z,100433.44
2022-08-04T14:13:41.444Z,100435.25
2022-08-04T14:16:19.455Z,100435.84
2022-08-04T14:18:47.891Z,100436.97
2022-08-04T14:21:17.484Z,100441.44
2022-08-04T14:23:49.163Z,100430.44
2022-08-04T14:26:32.455Z,100442.88
2022-08-04T14:29:27.025Z,100432.41
2022-08-04T14:32:05.546Z,100436.63
2022-08-04T14:34:41.369Z,100436.31
2022-08-04T14:37:16.267Z,100436.50
2022-08-04T14:40:17.256Z,100434.28
2022-08-04T14:42:43.380Z,100425.50
2022-08-04T14:45:12.146Z,100422.78
2022-08-04T14:47:52.491Z,100429.78
2022-08-04T14:50:22.796Z,100420.47
2022-08-04T14:52:50.811Z,100422.81
2022-08-04T14:55:21.471Z,100419.84
2022-08-04T14:58:34.496Z,100421.44
2022-08-04T15:00:38.596Z,100406.59
2022-08-04T15:03:09.560Z,100429.50
2022-08-04T15:06:00.814Z,100413.69
2022-08-04T15:08:29.224Z,100425.91
2022-08-04T15:11:02.449Z,100420.66
2022-08-04T15:13:30.503Z,100421.19
2022-08-04T15:16:06.667Z,100424.97
2022-08-04T15:18:39.166Z,100420.47
2022-08-04T15:21:07.812Z,100433.81
2022-08-04T15:23:39.655Z,100430.53
2022-08-04T15:26:12.441Z,100414.19
2022-08-04T15:28:43.358Z,100413.94
2022-08-04T15:32:08.015Z,100413.88
2022-08-04T15:34:02.169Z,100409.69
2022-08-04T15:36:38.965Z,100408.78
2022-08-04T15:39:18.479Z,100417.19
2022-08-04T15:41:57.414Z,100419.84
2022-08-04T15:45:05.197Z,100412.13
2022-08-04T15:47:33.320Z,100412.63
2022-08-04T15:50:10.387Z,100389.94
2022-08-04T15:53:10.675Z,100412.50
2022-08-04T15:55:42.154Z,100415.16
2022-08-04T15:58:12.217Z,100416.22
2022-08-04T16:01:13.346Z,100409.97
2022-08-04T16:04:00.402Z,100414.78
2022-08-04T16:06:45.727Z,100418.34
2022-08-04T16:09:46.251Z,100414.25
2022-08-04T16:12:54.208Z,100419.38
2022-08-04T16:15:40.320Z,100436.66
2022-08-04T16:18:14.160Z,100429.78
2022-08-04T16:20:57.572Z,100430.25
2022-08-04T16:24:02.333Z,100435.72
2022-08-04T16:26:56.434Z,100426.44
2022-08-04T16:29:38.902Z,100411.88
2022-08-04T16:32:26.491Z,100435.09
2022-08-04T16:34:59.781Z,100433.44
2022-08-04T16:37:35.603Z,100439.38
2022-08-04T16:40:36.594Z,100440.44
2022-08-04T16:43:08.638Z,100423.66
2022-08-04T16:45:55.174Z,100441.19
2022-08-04T16:48:27.205Z,100446.28
2022-08-04T16:51:05.007Z,100454.09
2022-08-04T16:53:53.433Z,100461.91
2022-08-04T16:56:35.295Z,100451.00
2022-08-04T16:59:08.476Z,100441.34
2022-08-04T17:01:37.502Z,100422.56
2022-08-04T17:04:06.781Z,100424.72
2022-08-04T17:06:39.648Z,100425.78
2022-08-04T17:09:11.011Z,100426.22
2022-08-04T17:11:40.784Z,100432.91
2022-08-04T17:14:09.034Z,100422.06
2022-08-04T17:16:39.218Z,100409.22
2022-08-04T17:19:25.283Z,100408.16
2022-08-04T17:22:02.815Z,100403.81
2022-08-04T17:24:33.617Z,100406.31
2022-08-04T17:27:04.392Z,100396.44
2022-08-04T17:29:51.441Z,100408.88
2022-08-04T17:32:22.661Z,100409.00
2022-08-04T17:34:52.060Z,100397.97
2022-08-04T17:40:14.334Z,100393.91
2022-08-04T17:42:47.908Z,100380.66
2022-08-04T17:48:09.954Z,100389.34
2022-08-04T17:50:43.322Z,100387.63
2022-08-04T17:53:12.986Z,100367.66
2022-08-04T17:55:47.031Z,100363.69
2022-08-04T17:58:21.573Z,100361.47
2022-08-04T18:03:53.482Z,100362.91
2022-08-04T18:06:22.737Z,100374.41
2022-08-04T18:11:41.674Z,100386.75
2022-08-04T18:14:11.711Z,100386.75
2022-08-04T18:16:46.153Z,100388.88
2022-08-04T18:19:15.856Z,100393.16
2022-08-04T18:22:00.094Z,100391.19
2022-08-04T18:24:34.742Z,100398.13
2022-08-04T18:27:20.781Z,100402.97
2022-08-04T18:30:32.571Z,100404.31
2022-08-04T18:32:47.151Z,100404.81
2022-08-04T18:36:31.440Z,100406.84
2022-08-04T18:38:22.608Z,100408.38
2022-08-04T18:40:52.967Z,100398.88
2022-08-04T18:43:28.699Z,100402.56
2022-08-04T18:45:59.909Z,100407.63
2022-08-04T18:48:36.075Z,100411.66
2022-08-04T18:51:10.059Z,100411.81
2022-08-04T18:53:58.702Z,100406.06
2022-08-04T18:56:29.133Z,100408.41
2022-08-04T18:58:59.785Z,100414.81
2022-08-04T19:02:12.303Z,100424.50
2022-08-04T19:04:33.630Z,100404.72
2022-08-04T19:07:29.507Z,100424.50
2022-08-04T19:09:53.999Z,100425.81
2022-08-04T19:12:26.803Z,100430.06
2022-08-04T19:15:18.994Z,100443.03
2022-08-04T19:17:54.117Z,100445.16
2022-08-04T19:20:26.563Z,100447.78
2022-08-04T19:24:28.361Z,100459.06
2022-08-04T19:26:01.262Z,100454.00
2022-08-04T19:28:34.356Z,100462.13
2022-08-04T19:31:04.568Z,100467.22
2022-08-04T19:33:59.136Z,100465.09
2022-08-04T19:36:27.872Z,100479.81
2022-08-04T19:38:57.352Z,100473.22
2022-08-04T19:41:26.791Z,100471.47
2022-08-04T19:43:55.211Z,100479.00
2022-08-04T19:46:24.710Z,100477.13
2022-08-04T19:48:59.797Z,100488.19
2022-08-04T19:51:29.821Z,100488.03
2022-08-04T19:54:02.758Z,100496.63
2022-08-04T19:56:39.906Z,100509.00
2022-08-04T19:59:09.116Z,100501.59
2022-08-04T20:01:44.856Z,100505.34
2022-08-04T20:04:15.349Z,100503.31
2022-08-04T20:06:43.519Z,100502.16
2022-08-04T20:09:24.449Z,100507.00
2022-08-04T20:11:54.326Z,100513.47
2022-08-04T20:14:32.795Z,100518.06
2022-08-04T20:17:02.704Z,100519.34
2022-08-04T20:19:31.867Z,100526.84
2022-08-04T20:22:02.690Z,100526.84
2022-08-04T20:24:38.073Z,100514.13
2022-08-04T20:27:14.648Z,100519.91
2022-08-04T20:29:48.642Z,100528.25
2022-08-04T20:32:20.067Z,100530.38
2022-08-04T20:34:52.209Z,100537.88
2022-08-04T20:37:22.961Z,100530.13
2022-08-04T20:39:55.356Z,100542.09
2022-08-04T20:42:27.520Z,100551.75
2022-08-04T20:45:01.856Z,100542.00
2022-08-04T20:47:35.126Z,100548.47
2022-08-04T20:50:08.659Z,100556.56
2022-08-04T20:52:37.835Z,100554.78
2022-08-04T20:55:07.190Z,100561.69
2022-08-04T20:57:47.880Z,100566.97
2022-08-04T21:00:17.531Z,100559.03
2022-08-04T21:02:54.505Z,100578.91
2022-08-04T21:05:24.303Z,100574.19
2022-08-04T21:07:56.590Z,100578.41
2022-08-04T21:10:24.870Z,100579.47
2022-08-04T21:12:54.099Z,100580.50
2022-08-04T21:15:25.575Z,100589.66
2022-08-04T21:20:43.947Z,100605.28
2022-08-04T21:23:11.788Z,100606.94
2022-08-04T21:25:43.450Z,100611.91
2022-08-04T21:28:12.018Z,100621.69
2022-08-04T21:30:52.931Z,100627.09
2022-08-04T21:33:50.044Z,100626.47
2022-08-04T21:36:19.567Z,100614.16
2022-08-04T21:38:51.540Z,100625.88
2022-08-04T21:41:54.569Z,100624.59
2022-08-04T21:44:24.153Z,100605.63
2022-08-04T21:46:55.458Z,100622.13
2022-08-04T21:49:23.420Z,100621.06
2022-08-04T21:52:00.444Z,100622.72
2022-08-04T21:54:29.237Z,100612.34
2022-08-04T21:56:56.987Z,100615.50
2022-08-04T21:59:30.789Z,100618.00
2022-08-04T22:02:01.009Z,100619.03
2022-08-04T22:04:29.569Z,100614.69
2022-08-04T22:07:03.301Z,100625.72
2022-08-04T22:09:40.871Z,100636.78
2022-08-04T22:12:10.365Z,100643.25
2022-08-04T22:14:40.490Z,100628.28
2022-08-04T22:17:13.906Z,100626.41
2022-08-04T22:19:56.177Z,100639.94
2022-08-04T22:22:29.061Z,100646.78
2022-08-04T22:25:01.862Z,100627.75
2022-08-04T22:27:55.053Z,100643.91
2022-08-04T22:30:24.222Z,100649.03
2022-08-04T22:32:58.540Z,100658.53
2022-08-04T22:35:42.780Z,100652.31
2022-08-04T22:38:25.428Z,100660.63
2022-08-04T22:41:01.963Z,100660.28
2022-08-04T22:43:32.856Z,100671.53
2022-08-04T22:46:05.416Z,100671.53
2022-08-04T22:48:35.469Z,100622.09
2022-08-04T22:51:03.816Z,100546.72
2022-08-04T22:53:33.199Z,100531.28
2022-08-04T22:56:09.988Z,100508.16
2022-08-04T22:58:40.794Z,100533.78
2022-08-04T23:01:15.119Z,100557.78
2022-08-04T23:03:51.219Z,100531.28
2022-08-04T23:06:24.948Z,100496.34
2022-08-04T23:08:54.624Z,100510.19
2022-08-04T23:11:22.438Z,100518.09
2022-08-04T23:13:50.410Z,100524.78
2022-08-04T23:16:19.059Z,100532.66
2022-08-04T23:18:48.289Z,100523.34
2022-08-04T23:21:17.444Z,100518.78
2022-08-04T23:24:00.725Z,100524.56
2022-08-04T23:26:32.139Z,100510.81
2022-08-04T23:29:03.709Z,100503.84
2022-08-04T23:31:40.797Z,100474.50
2022-08-04T23:34:12.277Z,100490.41
2022-08-04T23:36:40.839Z,100476.38
2022-08-04T23:39:10.346Z,100454.47
2022-08-04T23:41:51.404Z,100470.97
2022-08-04T23:44:24.758Z,100458.53
2022-08-04T23:46:59.154Z,100444.13
2022-08-04T23:49:40.536Z,100459.13
2022-08-04T23:52:23.430Z,100455.44
2022-08-04T23:54:58.776Z,100465.63
2022-08-04T23:57:31.358Z,100456.47
